WSSSWMKC

Guest
Details From WSSS - Singapore Changi Intl. Airport
To WMKC - Kota Bahru Sultan Ismail Petra
Flight Number -
Tags decoded
Created
Modified
Stats Distance 307 nm / 568 km
Max Altitude 0 ft / 0 m
Waypoints 2
Social Downloads 0
Likes 0
Share VATSIM

Download

Looking for another format? Having issues loading an existing format? Contact us
Advertisement - Login to hide

Notes

Requested: WSSS WMKC

Route

WSSS WMKC

ID Type Via Altitude Latitude Longitude Leg Dist Tot Dist Heading (true) Name
O WSSS APT - 0 ft / 0 m 1.35192˚ 103.99560˚ - 0 nm - Singapore Changi Intl. Airport
O WMKC APT - 0 ft / 0 m 6.16685˚ 102.29301˚ 306 nm 306 nm 341° / 341° Kota Bahru Sultan Ismail Petra

Altitude Profile

Advertisement - Login to hide

Weather


0- 5 10 15 20 25 30 35+ Temperature / ° C

Clouds and Precipitation
Forecast for 2017-12-16 12:00 UTC. Updated 9 minutes ago

Ground ~20,000 ft ~40,000 ft Winds

WSSS

Details ICAO WSSS (SIN)
Name Singapore Changi Intl. Airport
Region Singapore
Timezone Unknown (UTC+0.0)
Stats Elevation 22 ft / 7 m (AMSL)
Location 1.351917° 103.995603°
Runways 3
Magnetic Variation 0.229° E

METAR

WSSS 160700Z 05010KT 020V080 9999 FEW018TCU BKN300 31/24 Q1010 NOSIG

Decode

TAF

TAF WSSS 160500Z 1606/1712 03008KT 9999 FEW018CB SCT020 TEMPO 1606/1610 3000 TSRA FEW012CB BKN015 TEMPO 1706/1710 4500 SHRA FEW015CB BKN018

Decode

Departure Runways

ID Width Length Bearing (true) Bearing (mag) Surface Threshold Offset Overrun Length
02C 164 ft / 50 m 13,619 ft / 4,151 m 22.80° 22.57° Asphalt 200 ft / 61 m 0 ft / 0 m
02L 164 ft / 50 m 14,308 ft / 4,361 m 22.69° 22.46° Asphalt 200 ft / 61 m 0 ft / 0 m
02R 164 ft / 50 m 10,072 ft / 3,070 m 22.74° 22.51° Asphalt 600 ft / 183 m 0 ft / 0 m
20C 164 ft / 50 m 13,619 ft / 4,151 m 202.80° 202.57° Asphalt 200 ft / 61 m 0 ft / 0 m
20L 164 ft / 50 m 10,072 ft / 3,070 m 202.74° 202.51° Asphalt 499 ft / 152 m 0 ft / 0 m
20R 164 ft / 50 m 14,308 ft / 4,361 m 202.69° 202.46° Asphalt 3,301 ft / 1,006 m 0 ft / 0 m

WMKC

Details ICAO WMKC (KBR)
Name Kota Bahru Sultan Ismail Petra
Region Malaysia (Peninsular Malaysia)
Timezone Asia/Kuala_Lumpur (UTC+8.0)
Stats Elevation 16 ft / 5 m (AMSL)
Location 6.166851° 102.293014°
Runways 1
Magnetic Variation 0.119° W

METAR

WMKC 160700Z 07009KT 020V110 9999 FEW018 BKN280 30/25 Q1010

Decode

TAF

Not found

Destination Runways

ID Width Length Bearing (true) Bearing (mag) Surface Threshold Offset Overrun Length
10 150 ft / 46 m 6,978 ft / 2,127 m 99.73° 99.85° Asphalt 500 ft / 152 m 0 ft / 0 m
28 150 ft / 46 m 6,978 ft / 2,127 m 279.73° 279.85° Asphalt 200 ft / 61 m 260 ft / 79 m

Approach Navaids

Runway Type Ident Frequency Range Bearing (true) Bearing (mag) Slope Elevation
10 Localiser IKB 109.30 MHz 18 nm / 33 km 99.59° 99.71° - 16 ft / 5 m (AMSL)
10 Glidescope IKB 109.30 MHz 10 nm / 19 km 99.73° 99.85° 3.00° 16 ft / 5 m (AMSL)
10 DME IKB 109.30 MHz 18 nm / 33 km - - - 16 ft / 5 m (AMSL)

Popular Alternatives